Alpha, California Weather observations

Data are for observation ending at time listed.
 Day   Time    Ave.   Ave.  Ave.  Vector   Max.   Stn.    Total    Solar   Ave.   Snow 
  of    of     Air    Rel.  Wind   Wind    Wind   Baro.  Precip.   Rad.    Soil   Depth
Year   Day     Temp.  Hum.  Speed  Dir.    Gust   Pres.                    Temp.       
2016   (PST)    F      %     mph   deg.    mph     mb.     in.     W/m2     F      in. 
---------------------------------------------------------------------------------------  
 343    1:40  999.0   999  999.0   999    999.0   999.0   999.00     999    999.0  999.0
 343    1:50  999.0   999  999.0   999    999.0   999.0   999.00     999    999.0  999.0
 343    2:00  999.0   999  999.0   999    999.0   999.0   999.00     999    999.0  999.0
 343    2:10  999.0   999  999.0   999    999.0   999.0   999.00     999    999.0  999.0
 343    2:20  999.0   999  999.0   999    999.0   999.0   999.00     999    999.0  999.0
 343    2:30  999.0   999  999.0   999    999.0   999.0   999.00     999    999.0  999.0
 343    2:40  999.0   999  999.0   999    999.0   999.0   999.00     999    999.0  999.0
 343    2:50  999.0   999  999.0   999    999.0   999.0   999.00     999    999.0  999.0
 343    3:00  999.0   999  999.0   999    999.0   999.0   999.00     999    999.0  999.0
 343    3:10  999.0   999  999.0   999    999.0   999.0   999.00     999    999.0  999.0
 343    3:20  999.0   999  999.0   999    999.0   999.0   999.00     999    999.0  999.0
 343    3:30  999.0   999  999.0   999    999.0   999.0   999.00     999    999.0  999.0
 343    3:40   31.3    96    5.4   161     12.9   783.4    0.00       0    -14710.0   29.6
 343    3:50   31.3    96    4.3   177      9.3   783.5    0.00       0    -14710.0   29.5
 343    4:00   31.3    96    5.0   155     12.3   783.4    0.00       0    -14710.0   29.2
 343    4:10   31.4    96    3.9   187     10.4   783.3    0.00       0    -14710.0   29.0
 343    4:20   31.5    95    4.0   199     10.8   783.4    0.00       0    -14710.0   29.4
 343    4:30   31.7    95    4.7   191     16.7   783.6    0.00       0    -14710.0   29.5
 343    4:40   31.8    95    4.3   200     11.5   783.8    0.00       0    -14710.0   29.5
 343    4:50   31.9    95    4.1   201     11.8   783.7    0.00       0    -14710.0   29.6
 343    5:00   31.9    95    5.0   194     13.1   783.8    0.00       0    -14710.0   29.4
 343    5:10   32.0    96    3.7   196     11.0   783.7    0.00       0    -14710.0   29.5
 343    5:20   32.2    96    4.6   184     10.9   783.8    0.00       0    -14710.0   29.4
 343    5:30   32.2    96    3.7   204      9.3   783.9    0.00       0    -14710.0   29.5
 343    5:40   32.2    96    4.0   193     10.8   783.9    0.00       0    -14710.0   29.5
 343    5:50   32.3    96    4.4   180     10.4   784.0    0.00       0    -14710.0   29.7
 343    6:00   32.5    96    4.1   204      9.4   784.1    0.00       0    -14710.0   29.8
 343    6:10   32.6    96    4.2   194     11.5   784.3    0.00       0    -14710.0   29.8
 343    6:20   32.8    96    3.9   208      9.5   784.4    0.00       0    -14710.0   29.8
 343    6:30   32.8    96    4.1   232      9.9   784.4    0.00       0    -14710.0   29.8
 343    6:40   33.0    96    3.5   218      9.5   784.5    0.00       0    -14710.0   29.9
 343    6:50   32.8    96    3.0   208      6.7   784.5    0.00       0    -14710.0   29.9
 343    7:00   32.9    96    3.6   220     16.4   784.6    0.00       1    -14710.0   29.9
 343    7:10   33.2   114    4.8   197     15.1   784.6    0.00       1    -14710.0   29.9
 343    7:20   33.3   150    4.7   208     12.1   784.7    0.00       3    -14710.0   29.8
 343    7:30   33.3   162    3.1   231      9.3   784.8    0.00       7    -14710.0   29.7
 343    7:40   33.4   156    3.7   213     13.1   784.9    0.00       7    -14710.0   29.5
 343    7:50   33.7   147    4.1   190      8.2   785.0    0.00      11    -14710.0   29.4
 343    8:00   33.9   145    4.2   211     12.1   785.0    0.00      10    -14710.0   29.4
 343    8:10   34.1   145    3.5   219     10.4   785.1    0.00       9    -14710.0   29.0
 343    8:20   34.0   137    3.4   204      7.2   785.2    0.00      17    -14710.0   29.5
 343    8:30   34.0   126    2.7   208      8.6   785.3    0.00      17    -14710.0   29.3
 343    8:40   34.1   118    4.0   190     10.3   785.4    0.00      22    -14710.0   29.0
 343    8:50   34.1   115    4.5   178     14.5   785.6    0.00      18    -14710.0   28.8
 343    9:00   34.1   116    3.6   196     11.1   785.8    0.00      18    -14710.0   28.7
 343    9:10   34.0   121    3.6   207     19.4   786.1    0.00      24    -14710.0   28.3
 343    9:20   34.3   130    4.1   194     10.3   786.3    0.00      26    -14710.0   28.7
 343    9:30   34.3   144    4.1   203     10.2   786.4    0.00      30    -14710.0   29.1
 343    9:40   34.4   162    3.0   213      9.0   786.5    0.00      46    -14710.0   29.4
 343    9:50   34.6   166    4.0   182     12.9   786.5    0.00      47    -14710.0   29.4
 343   10:00   34.6   166    4.1   186     10.9   786.7    0.00      52    -14710.0   29.4
 343   10:10   32.2   166    3.9   196     12.8   786.8    0.00      50    -14710.0   29.4
 343   10:20   30.8   166    4.5   183     15.6   786.9    0.00      57    -14710.0   29.4
 343   10:30   30.7   166    3.6   183     12.7   786.8    0.00      60    -14710.0   29.4
 343   10:40   30.6   166    4.0   179     10.3   786.8    0.00      47    -14710.0   29.3
 343   10:50   30.6   166    5.3   166     13.4   786.8    0.00      53    -14710.0   29.2
 343   11:00   29.9   166    4.6   172     14.6   786.9    0.00      60    -14710.0   29.0
 343   11:10   29.8   166    5.3   169     13.0   786.9    0.00      53    -14710.0   29.2
 343   11:20   30.0   166    4.5   170     13.2   786.9    0.00      49    -14710.0   29.2
 343   11:30   30.2   166    4.6   174     19.5   786.8    0.00      63    -14710.0   29.1
 343   11:40   30.6   166    3.6   176      9.1   786.9    0.00      70    -14710.0   29.2
 343   11:50   30.9   166    3.7   180     10.7   786.8    0.00      66    -14710.0   29.0
 343   12:00   31.2   166    3.0   183     12.4   786.8    0.00      50    -14710.0   28.9
 343   12:10   31.3   166    3.9   166      8.7   786.7    0.00      66    -14710.0   28.7
 343   12:20   31.2   166    5.2   150     11.1   786.5    0.00      46    -14710.0   28.5
 343   12:30   31.0   166    6.9   141     13.4   786.3    0.00      30    -14710.0   28.5
 343   12:40   31.0   166    5.5   154     12.9   786.3    0.00      34    -14710.0   28.4
 343   12:50   31.2   166    5.4   169     12.7   786.4    0.00      39    -14710.0   28.4
 343   13:00   31.4   166    4.7   158     13.1   786.5    0.00      49    -14710.0   28.5
 343   13:10   31.6   166    5.5   154     12.5   786.6    0.00      61    -14710.0   28.5
 343   13:20   31.6   166    4.6   171     10.2   786.8    0.00      50    -14710.0   28.8
 343   13:30   31.5   166    4.5   163     11.5   786.9    0.00      55    -14710.0   28.4
 343   13:40   31.4   166    3.7   186     12.3   786.9    0.00      37    -14710.0   28.0
 343   13:50   31.6   166    3.2   180      7.6   786.9    0.00      44    -14710.0   27.5
 343   14:00   31.7   166    3.2   173      8.8   786.9    0.00      49    -14710.0   27.5
 343   14:10   31.7   166    4.6   156     11.8   786.8    0.00      36    -14710.0   27.5
 343   14:20   31.4   166    5.2   148     13.4   787.0    0.00      27    -14710.0   27.6
 343   14:30   31.2   166    6.9   146     16.6   787.0    0.00      19    -14710.0   28.0
 343   14:40   30.8   166    8.5   132     18.8   787.1    0.00      20    -14710.0   28.1
 343   14:50   30.8   166    6.7   139     17.7   787.1    0.00      27    -14710.0   27.7
 343   15:00   31.0   166    4.3   152     11.1   787.1    0.00      34    -14710.0   27.7
 343   15:10   31.0   166    4.2   160     12.8   787.2    0.00      26    -14710.0   27.8
 343   15:20   31.1   166    7.0   139     15.1   787.0    0.00      17    -14710.0   27.9
 343   15:30   30.8   166    7.6   140     17.3   787.1    0.00       9    -14710.0   28.0
 343   15:40   30.3   166    8.6   132     16.7   787.1    0.00       7    -14710.0   28.4
 343   15:50   30.4   166    8.6   132     16.4   787.1    0.00       5    -14710.0   27.9
 343   16:00   30.5   166    8.5   131     16.7   787.2    0.00       4    -14710.0   28.0
 343   16:10   30.6   166    7.0   137     14.5   787.3    0.00       3    -14710.0   28.3
 343   16:20   30.6   166    6.4   137     14.2   787.3    0.00       2    -14710.0   28.6
 343   16:30   30.5   166    7.3   132     17.7   787.4    0.00       1    -14710.0   28.6
 343   16:40   30.1   166    5.2   146     12.5   787.5    0.00       0    -14710.0   28.7
 343   16:50   30.1   166    5.7   138     12.6   787.4    0.00       0    -14710.0   28.8
 343   17:00   30.3   166   10.1   123     20.9   787.5    0.00       0    -14710.0   28.7
 343   17:10   30.0   166    9.7   123     18.9   787.6    0.00       0    -14710.0   28.8
 343   17:20   29.9   166    5.8   138     18.6   787.6    0.00       0    -14710.0   28.0
 343   17:30   30.0   166    4.1   170     14.0   787.7    0.00       0    -14710.0   27.9
 343   17:40   30.0   166    3.8   165     11.5   787.9    0.00       0    -14710.0   27.8
 343   17:50   30.0   166    4.1   176     17.0   787.9    0.00       0    -14710.0   27.7
 343   18:00   30.0   166    3.6   168     11.0   787.9    0.00       0    -14710.0   27.8
 343   18:10   29.9   166    4.8   162     15.9   787.9    0.00       0    -14710.0   27.6
 343   18:20   29.8   166    3.1   175      8.5   787.9    0.00       0    -14710.0   27.5
 343   18:30   29.7   166    4.9   161     11.8   787.9    0.00       0    -14710.0   28.0
 343   18:40   29.7   166    5.2   147     11.8   787.9    0.00       0    -14710.0   28.4
 343   18:50   29.7   166    4.2   156     13.5   787.8    0.00       0    -14710.0   28.5
 343   19:00   29.7   166    6.2   140     16.0   787.9    0.00       0    -14710.0   28.6
 343   19:10   29.7   166    6.8   130     14.2   787.9    0.00       0    -14710.0   28.6
 343   19:20   29.6   166    4.8   146     14.8   788.0    0.00       0    -14710.0   28.8
 343   19:30   29.6   166    7.1   135     18.3   788.1    0.00       0    -14710.0   28.8
 343   19:40   29.5   166    6.5   136     14.6   788.0    0.00       0    -14710.0   28.8
 343   19:50   29.5   166    7.3   135     17.8   788.1    0.00       0    -14710.0   28.8
 343   20:00   29.3   166    7.5   129     20.2   788.1    0.00       0    -14710.0   28.8
 343   20:10   29.2   166    6.9   137     13.8   788.1    0.00       0    -14710.0   28.8
 343   20:20   29.1   166    8.6   125     20.6   788.2    0.00       0    -14710.0   28.9
 343   20:30   29.2   166    5.8   141     12.0   788.2    0.00       0    -14710.0   28.8
 343   20:40   29.3   166    4.1   165     11.5   788.4    0.00       0    -14710.0   28.9
 343   20:50   29.4   166    3.3   165      8.1   788.6    0.00       0    -14710.0   28.9
 343   21:00   29.4   166    4.7   165     15.2   788.5    0.00       0    -14710.0   28.8
 343   21:10   29.4   166    5.4   145     15.1   788.4    0.00       0    -14710.0   28.8
 343   21:20   29.5   166    3.1   176     10.6   788.4    0.00       0    -14710.0   28.8
 343   21:30   29.5   166    3.8   160     10.7   788.5    0.00       0    -14710.0   28.8
 343   21:40   29.5   166    3.6   164      9.8   788.6    0.00       0    -14710.0   28.7
 343   21:50   29.5   166    3.1   183      9.1   788.5    0.00       0    -14710.0   28.3
 343   22:00   29.6   166    5.3   139     12.6   788.6    0.00       0    -14710.0   28.3
 343   22:10   29.7   166    4.2   163     11.6   788.8    0.00       0    -14710.0   28.0
 343   22:20   29.6   166    4.4   155     10.7   788.9    0.00       0    -14710.0   27.9
 343   22:30   29.5   166    3.9   160     12.4   788.8    0.00       0    -14710.0   27.6
 343   22:40   29.4   166    5.5   147     11.3   788.8    0.00       0    -14710.0   27.4
 343   22:50   29.5   166    5.9   144     15.2   788.8    0.00       0    -14710.0   27.2
 343   23:00   29.5   166    5.8   144     14.2   788.9    0.00       0    -14710.0   27.3
 343   23:10   29.3   166    6.1   142     12.9   788.8    0.00       0    -14710.0   27.3
 343   23:20   29.1   166    6.6   131     18.6   788.8    0.00       0    -14710.0   27.5
 343   23:30   29.2   166    5.9   137     17.8   788.6    0.00       0    -14710.0   28.5
 343   23:40   29.3   166    5.7   138     12.2   788.6    0.00       0    -14710.0   28.6
 343   23:50   29.4   166    7.4   134     18.5   788.5    0.00       0    -14710.0   28.7
 344    0:00   29.5   166    5.5   134     16.8   788.6    0.00       0    -14710.0   28.8
 344    0:10   29.6   166    4.7   155     12.9   788.5    0.00       0    -14710.0   28.7
 344    0:20   29.8   166    6.6   142     18.9   788.5    0.00       0    -14710.0   28.8
 344    0:30   29.8   166    7.2   132     21.0   788.6    0.00       0    -14710.0   28.8
 344    0:40   29.7   166    6.2   136     13.2   788.6    0.00       0    -14710.0   28.7
 344    0:50   29.4   166    9.0   118     19.8   788.7    0.00       0    -14710.0   28.7
 344    1:00   29.0   166    9.0   125     17.8   788.8    0.00       0    -14710.0   28.6
 344    1:10   28.9   166    5.7   143     14.7   788.8    0.00       0    -14710.0   28.7
 344    1:20   29.0   166    5.6   151     15.3   788.8    0.00       0    -14710.0   28.7
 344    1:30   29.2   166    5.2   147     12.2   788.7    0.00       0    -14710.0   28.6

Return to Alpha graphs page.


Western Regional Climate Center,wrcc@dri.edu